Scholes International At Galveston Airport Galveston US
ICAO: KGLS
IATA: GLS
Category: Medium
Scheduled Services: No

Elevation: 6 ft
TransAlt. 18000 ft.

Airport Communications:
HOUSTON APP/DEP:134.45
ASOS:119.275
CLNC DEL:135.35
CTAF:120.575
GND:118.625
MONTGOMERY CO RDO:122.15
TWR:120.575
UNICOM:123.05

KGLS Zoom In..

If you have problems with the map follow the link
https://www.worldairports.se/pages/airport.php?
ICAO=KGLS

Runways:

(A) RW 14 length 6000 ft width 150 ft
ILS 111.70 / hdg 138

(B) RW 18 length 6001 ft width 150 ft
---- / hdg 179

(C) RW 32 length 6000 ft width 150 ft
---- / hdg 318

(D) RW 36 length 6001 ft width 150 ft
---- / hdg 359

Location; KGLS
Day. 26 / Time. 00.52 Zulu
* Altimeter: 30.08
* Temperature: 18° c. 64.4°f.
* Wind from: 130° Speed 12 kn.
Dewpoint: 13° c.
Visibility: 10 Statute Miles.
Clouds: Broken 6000 ft.
Clouds: Broken 7500 ft.
Clouds: Overcast 11000 ft.

KGLS 260052Z AUTO 13012KT 10SM BKN060 BKN075 OVC110 18/13 A3008 RMK AO2 SLP185 T01780133


Wind From 130°
Speed 12 kn.

 
 
jpsmedia worldairports.se 2020   terms of use